Time;durP1;ratioP1;P1;durP2;ratioP2;P2;SDS_P1;SDS_P2;PMS_P1;PMS_P2;Temp;Humidity;BMP_temperature;BMP_pressure;BME280_temperature;BME280_humidity;BME280_pressure;Samples;Min_cycle;Max_cycle;Signal;HPM_P1;HPM_P2
2022/11/15 00:02:11;;;;;;;13.10;12.20;;;12.40;38.40;;;;;;4961712;28;20201;-53
2022/11/15 00:04:37;;;;;;;11.50;10.60;;;12.40;39.00;;;;;;4962466;28;20218;-54
2022/11/15 00:07:02;;;;;;;11.83;11.13;;;12.40;38.50;;;;;;4963230;28;20179;-55
2022/11/15 00:09:28;;;;;;;11.10;10.53;;;12.30;38.70;;;;;;4962662;28;20182;-53
2022/11/15 00:11:54;;;;;;;11.40;10.90;;;12.30;38.60;;;;;;4961981;28;20273;-55
2022/11/15 00:14:19;;;;;;;11.43;10.87;;;12.30;38.50;;;;;;4964078;28;20178;-56
2022/11/15 00:16:45;;;;;;;10.33;9.83;;;12.30;38.10;;;;;;4962453;28;20210;-54
2022/11/15 00:19:11;;;;;;;10.60;10.10;;;12.30;38.20;;;;;;4963742;28;20178;-54
2022/11/15 00:21:36;;;;;;;10.50;10.00;;;12.40;37.90;;;;;;4962268;28;20556;-55
2022/11/15 00:24:02;;;;;;;11.23;10.63;;;12.40;37.60;;;;;;4962372;28;20269;-54
2022/11/15 00:26:27;;;;;;;10.87;10.37;;;12.40;37.10;;;;;;4961802;28;20183;-53
2022/11/15 00:28:53;;;;;;;10.63;10.03;;;12.50;36.70;;;;;;4962245;28;20186;-53
2022/11/15 00:31:19;;;;;;;11.50;10.70;;;12.40;36.50;;;;;;4961030;28;20187;-53
2022/11/15 00:33:45;;;;;;;10.43;9.73;;;12.50;36.30;;;;;;4962834;28;20333;-54
2022/11/15 00:36:11;;;;;;;10.63;10.20;;;12.50;36.20;;;;;;4963885;28;20214;-55
2022/11/15 00:38:38;;;;;;;10.07;9.53;;;12.50;36.20;;;;;;4962697;28;20414;-55
2022/11/15 00:41:05;;;;;;;12.00;11.40;;;12.50;36.00;;;;;;4962796;28;20414;-54
2022/11/15 00:43:32;;;;;;;10.90;10.37;;;12.50;35.50;;;;;;4961582;28;20442;-53
2022/11/15 00:45:57;;;;;;;11.07;10.50;;;12.60;35.70;;;;;;4960710;28;20418;-58
2022/11/15 00:48:23;;;;;;;11.53;10.83;;;12.60;35.00;;;;;;4961872;28;20414;-58
2022/11/15 00:50:49;;;;;;;11.00;10.40;;;12.60;34.70;;;;;;4961524;28;20183;-59
2022/11/15 00:53:16;;;;;;;11.47;10.67;;;12.60;34.30;;;;;;4961077;28;20418;-59
2022/11/15 00:55:42;;;;;;;11.60;10.80;;;12.60;34.50;;;;;;4962055;28;20465;-58
2022/11/15 00:58:08;;;;;;;10.40;9.90;;;12.60;34.60;;;;;;4959711;28;20452;-58
2022/11/15 01:00:33;;;;;;;11.03;10.50;;;12.50;35.20;;;;;;4960884;28;20213;-58
2022/11/15 01:03:01;;;;;;;11.40;10.80;;;12.50;35.00;;;;;;4960837;28;20451;-58
2022/11/15 01:05:27;;;;;;;11.23;10.50;;;12.50;35.50;;;;;;4960822;28;20178;-58
2022/11/15 01:07:54;;;;;;;10.63;10.13;;;12.50;35.60;;;;;;4961910;28;20441;-58
2022/11/15 01:10:20;;;;;;;10.40;10.00;;;12.50;36.10;;;;;;4960316;28;20426;-58
2022/11/15 01:12:45;;;;;;;11.17;10.17;;;12.50;35.70;;;;;;4960910;28;20437;-58
2022/11/15 01:15:11;;;;;;;10.63;10.23;;;12.40;36.20;;;;;;4960053;28;20835;-58
2022/11/15 01:17:37;;;;;;;11.43;10.73;;;12.40;36.50;;;;;;4960031;28;20281;-58
2022/11/15 01:20:03;;;;;;;11.63;10.63;;;12.40;36.30;;;;;;4961330;28;20175;-58
2022/11/15 01:22:28;;;;;;;11.87;11.27;;;12.40;36.40;;;;;;4959151;28;20655;-58
2022/11/15 01:24:54;;;;;;;10.90;10.40;;;12.40;37.00;;;;;;4958970;28;20418;-59
2022/11/15 01:27:20;;;;;;;11.37;10.53;;;12.40;36.40;;;;;;4958319;28;20179;-58
2022/11/15 01:29:45;;;;;;;11.87;11.17;;;12.40;36.20;;;;;;4959341;28;20253;-60
2022/11/15 01:32:11;;;;;;;11.00;10.40;;;12.40;36.20;;;;;;4960751;28;20518;-58
2022/11/15 01:34:36;;;;;;;10.60;10.10;;;12.40;36.00;;;;;;4959048;28;20186;-58
2022/11/15 01:37:02;;;;;;;9.53;9.10;;;12.40;36.00;;;;;;4958958;28;20210;-59
2022/11/15 01:39:28;;;;;;;10.63;9.93;;;12.40;35.80;;;;;;4961009;28;20174;-58
2022/11/15 01:41:54;;;;;;;10.70;10.20;;;12.40;36.00;;;;;;4959473;28;20182;-59
2022/11/15 01:44:40;;;;;;;10.17;9.77;;;12.30;35.90;;;;;;4959879;28;20241;-59
2022/11/15 01:47:35;;;;;;;9.70;9.33;;;12.30;36.00;;;;;;4959587;28;20426;-58
2022/11/15 01:50:14;;;;;;;10.30;9.90;;;12.30;36.00;;;;;;4959357;28;20806;-58
2022/11/15 01:52:40;;;;;;;11.60;11.00;;;12.30;35.60;;;;;;4958719;28;20418;-59
2022/11/15 01:55:11;;;;;;;10.77;10.17;;;12.20;35.80;;;;;;4959522;28;21157;-58
2022/11/15 01:57:39;;;;;;;10.20;9.80;;;12.10;36.00;;;;;;4958413;28;20410;-58
2022/11/15 02:00:05;;;;;;;11.13;10.57;;;12.10;36.40;;;;;;4961082;28;20432;-53
2022/11/15 02:02:33;;;;;;;10.70;10.10;;;12.10;36.60;;;;;;4961038;28;20561;-56
2022/11/15 02:04:59;;;;;;;10.10;9.60;;;12.10;36.40;;;;;;4958722;28;20804;-55
2022/11/15 02:07:25;;;;;;;10.37;9.97;;;12.10;36.40;;;;;;4960723;28;20468;-55
2022/11/15 02:09:51;;;;;;;11.77;11.20;;;12.10;36.70;;;;;;4958416;28;20251;-53
2022/11/15 02:12:20;;;;;;;10.83;10.13;;;12.10;36.80;;;;;;4961922;28;20417;-55
2022/11/15 02:14:51;;;;;;;10.50;10.00;;;12.10;36.50;;;;;;4958939;28;20421;-55
2022/11/15 02:17:52;;;;;;;10.10;9.70;;;12.10;36.50;;;;;;4962373;28;20480;-53
2022/11/15 02:20:40;;;;;;;10.97;9.83;;;12.10;36.60;;;;;;4962564;28;20410;-55
2022/11/15 02:23:33;;;;;;;10.87;10.37;;;12.10;36.50;;;;;;4963218;28;20841;-54
2022/11/15 02:26:23;;;;;;;10.67;10.20;;;12.00;37.10;;;;;;4960837;28;20449;-59
2022/11/15 02:29:10;;;;;;;11.83;11.33;;;12.00;36.80;;;;;;4963554;28;20425;-55
2022/11/15 02:32:08;;;;;;;10.20;9.67;;;12.00;36.90;;;;;;4961059;28;20898;-57
2022/11/15 02:34:42;;;;;;;10.17;9.73;;;12.00;36.50;;;;;;4963089;28;20497;-54
2022/11/15 02:37:29;;;;;;;10.43;10.03;;;12.00;36.50;;;;;;4960796;28;20480;-55
2022/11/15 02:40:10;;;;;;;11.40;10.80;;;12.00;36.70;;;;;;4962274;28;20932;-54
2022/11/15 02:45:39;;;;;;;11.67;11.00;;;12.00;36.60;;;;;;4964433;28;20433;-53
2022/11/15 02:48:07;;;;;;;12.23;11.73;;;11.90;36.90;;;;;;4962303;28;20445;-53
2022/11/15 02:50:33;;;;;;;11.90;11.20;;;12.00;37.20;;;;;;4961595;28;20970;-52
2022/11/15 02:52:59;;;;;;;11.60;11.00;;;12.00;37.30;;;;;;4962244;28;20477;-53
2022/11/15 02:55:38;;;;;;;11.53;11.00;;;12.00;37.30;;;;;;4962546;28;20831;-52
2022/11/15 02:58:13;;;;;;;10.93;10.27;;;12.00;37.30;;;;;;4962255;28;20433;-54
2022/11/15 03:00:54;;;;;;;11.40;10.90;;;11.90;37.50;;;;;;4963294;28;20419;-56
2022/11/15 03:03:25;;;;;;;11.90;11.40;;;11.90;37.60;;;;;;4963251;28;20428;-54
2022/11/15 03:06:18;;;;;;;10.60;10.10;;;11.90;37.40;;;;;;4959525;28;21021;-53
2022/11/15 03:09:19;;;;;;;12.07;11.43;;;11.90;37.10;;;;;;4962327;28;20421;-54
2022/11/15 03:11:58;;;;;;;11.43;10.93;;;12.00;37.30;;;;;;4960265;28;20440;-54
2022/11/15 03:14:28;;;;;;;11.60;11.00;;;12.00;37.30;;;;;;4960055;28;20426;-53
2022/11/15 03:16:57;;;;;;;11.60;11.10;;;12.00;37.20;;;;;;4962481;28;20477;-54
2022/11/15 03:19:31;;;;;;;12.40;11.60;;;12.00;36.80;;;;;;4961665;28;20410;-55
2022/11/15 03:22:01;;;;;;;11.87;11.27;;;12.00;36.60;;;;;;4961520;28;20848;-55
2022/11/15 03:24:30;;;;;;;11.13;10.70;;;12.00;36.90;;;;;;4961343;28;20418;-53
2022/11/15 03:26:59;;;;;;;11.93;11.43;;;12.00;36.50;;;;;;4958482;28;20841;-54
2022/11/15 03:29:30;;;;;;;11.47;10.97;;;12.00;36.50;;;;;;4959080;28;20433;-54
2022/11/15 03:32:02;;;;;;;11.77;11.03;;;12.00;36.50;;;;;;4962724;28;20433;-53
2022/11/15 03:34:55;;;;;;;10.97;10.57;;;12.00;36.40;;;;;;4962812;28;20894;-54
2022/11/15 03:37:25;;;;;;;12.60;12.00;;;12.00;36.20;;;;;;4959206;28;20480;-51
2022/11/15 03:39:51;;;;;;;11.57;10.87;;;12.00;36.60;;;;;;4961214;28;20488;-52
2022/11/15 03:42:25;;;;;;;11.30;10.90;;;11.90;36.50;;;;;;4962317;28;20942;-54
2022/11/15 03:45:00;;;;;;;11.50;11.10;;;12.00;36.20;;;;;;4962475;28;20201;-58
2022/11/15 03:47:32;;;;;;;10.60;10.20;;;12.00;36.00;;;;;;4960441;28;20421;-58
2022/11/15 03:50:19;;;;;;;11.20;10.70;;;12.00;36.30;;;;;;4959494;28;20507;-58
2022/11/15 03:52:47;;;;;;;11.97;11.30;;;11.90;36.50;;;;;;4960998;28;20552;-57
2022/11/15 03:55:18;;;;;;;11.80;11.20;;;11.60;37.30;;;;;;4962368;28;20406;-59
2022/11/15 03:57:44;;;;;;;12.23;11.63;;;11.50;37.90;;;;;;4961498;28;20414;-58
2022/11/15 04:00:10;;;;;;;12.17;11.67;;;11.30;39.00;;;;;;4959964;28;20430;-59
2022/11/15 04:02:36;;;;;;;12.27;11.70;;;11.40;39.50;;;;;;4960247;28;20612;-59
2022/11/15 04:05:02;;;;;;;12.10;11.50;;;11.50;39.10;;;;;;4961451;28;21056;-58
2022/11/15 04:07:28;;;;;;;12.00;11.30;;;11.60;38.80;;;;;;4960632;28;20662;-59
2022/11/15 04:10:02;;;;;;;12.40;11.80;;;11.60;39.10;;;;;;4960837;28;20456;-59
2022/11/15 04:12:33;;;;;;;13.30;12.70;;;11.70;39.10;;;;;;4961345;28;20201;-58
2022/11/15 04:15:08;;;;;;;13.13;12.43;;;11.80;38.20;;;;;;4963527;28;20961;-58
2022/11/15 04:17:43;;;;;;;11.83;11.33;;;12.00;37.60;;;;;;4963891;28;20448;-58
2022/11/15 04:25:44;;;;;;;11.50;11.10;;;12.20;36.00;;;;;;4963588;28;20417;-58
2022/11/15 04:28:11;;;;;;;12.00;11.40;;;12.20;36.10;;;;;;4963737;28;20508;-58
2022/11/15 04:30:36;;;;;;;12.40;11.87;;;12.30;35.70;;;;;;4965045;28;20845;-58
2022/11/15 04:33:02;;;;;;;12.00;11.50;;;12.40;36.40;;;;;;4963427;28;20422;-55
2022/11/15 04:35:28;;;;;;;11.00;10.50;;;12.30;36.50;;;;;;4963371;28;20289;-55
2022/11/15 04:37:55;;;;;;;11.30;10.90;;;12.30;36.90;;;;;;4965562;28;20171;-54
2022/11/15 04:40:21;;;;;;;11.43;10.93;;;12.40;36.40;;;;;;4963909;28;20418;-55
2022/11/15 04:42:46;;;;;;;12.50;12.00;;;12.50;36.10;;;;;;4965530;28;20487;-56
2022/11/15 04:45:12;;;;;;;11.73;11.20;;;12.50;35.60;;;;;;4964502;28;20210;-55
2022/11/15 04:47:38;;;;;;;12.90;12.20;;;12.50;35.40;;;;;;4967433;28;20187;-54
2022/11/15 04:50:04;;;;;;;10.90;10.47;;;12.50;35.20;;;;;;4966258;28;20591;-56
2022/11/15 04:52:29;;;;;;;11.63;11.07;;;12.50;35.30;;;;;;4966176;28;20189;-53
2022/11/15 04:54:55;;;;;;;11.20;10.80;;;12.50;35.60;;;;;;4966304;28;20790;-58
2022/11/15 04:57:21;;;;;;;10.67;10.27;;;12.50;35.40;;;;;;4967683;28;20725;-60
2022/11/15 04:59:46;;;;;;;12.10;11.60;;;12.40;35.50;;;;;;4968986;28;20644;-60
2022/11/15 05:02:12;;;;;;;11.87;11.27;;;12.40;35.50;;;;;;4967890;28;20648;-58
2022/11/15 05:04:38;;;;;;;11.57;11.07;;;12.40;35.70;;;;;;4969392;28;20178;-58
2022/11/15 05:07:06;;;;;;;11.57;11.07;;;12.40;35.80;;;;;;4970657;28;20179;-58
2022/11/15 05:09:32;;;;;;;12.30;11.70;;;12.30;36.00;;;;;;4969495;28;20193;-58
2022/11/15 05:11:57;;;;;;;12.63;11.80;;;12.30;36.00;;;;;;4969483;28;20413;-58
2022/11/15 05:14:23;;;;;;;13.70;12.83;;;12.20;36.50;;;;;;4971161;28;20587;-58
2022/11/15 05:16:49;;;;;;;11.33;10.77;;;12.30;36.60;;;;;;4969284;28;20572;-58
2022/11/15 05:19:14;;;;;;;12.20;11.60;;;12.30;36.50;;;;;;4968437;28;20483;-58
2022/11/15 05:21:40;;;;;;;11.27;10.77;;;12.30;36.50;;;;;;4968348;28;20178;-58
2022/11/15 05:24:06;;;;;;;11.27;10.87;;;12.30;36.80;;;;;;4970994;28;20174;-59
2022/11/15 05:26:32;;;;;;;11.33;10.83;;;12.20;36.80;;;;;;4970981;28;20578;-58
2022/11/15 05:28:58;;;;;;;12.30;11.70;;;12.20;36.80;;;;;;4970158;28;20179;-58
2022/11/15 05:31:25;;;;;;;11.77;11.27;;;12.10;36.40;;;;;;4969583;28;20422;-59
2022/11/15 05:33:51;;;;;;;11.90;11.00;;;12.20;36.90;;;;;;4968769;28;20410;-57
2022/11/15 05:36:37;;;;;;;11.67;11.17;;;12.10;37.20;;;;;;4971587;28;20516;-58
2022/11/15 05:39:05;;;;;;;12.10;11.50;;;12.00;36.70;;;;;;4968905;28;20933;-58
2022/11/15 05:41:35;;;;;;;12.00;11.47;;;12.00;37.10;;;;;;4968806;28;20778;-59
2022/11/15 05:44:03;;;;;;;11.77;11.27;;;12.10;37.00;;;;;;4968572;28;20426;-55
2022/11/15 05:46:29;;;;;;;11.60;10.90;;;12.00;37.60;;;;;;4970014;28;20417;-53
2022/11/15 05:48:55;;;;;;;11.80;11.30;;;12.00;37.40;;;;;;4970911;28;20418;-54
2022/11/15 05:51:23;;;;;;;12.87;12.17;;;12.10;37.20;;;;;;4969525;28;20428;-54
2022/11/15 05:53:50;;;;;;;12.73;12.03;;;12.10;37.60;;;;;;4973437;28;20410;-54
2022/11/15 05:56:16;;;;;;;12.93;12.30;;;12.10;37.50;;;;;;4973847;28;20492;-55
2022/11/15 05:58:42;;;;;;;12.27;11.67;;;12.20;37.30;;;;;;4974466;28;21038;-53
2022/11/15 06:01:09;;;;;;;14.20;13.60;;;12.10;37.10;;;;;;4972627;28;20536;-52
2022/11/15 06:03:34;;;;;;;13.37;12.87;;;12.20;37.10;;;;;;4973666;28;20501;-51
2022/11/15 06:06:00;;;;;;;14.23;13.57;;;12.20;37.10;;;;;;4973669;28;20516;-54
2022/11/15 06:08:26;;;;;;;17.07;14.70;;;12.20;37.20;;;;;;4974252;28;20755;-53
2022/11/15 06:10:52;;;;;;;14.17;13.47;;;12.20;37.10;;;;;;4974512;28;20259;-54
2022/11/15 06:13:17;;;;;;;14.60;13.90;;;12.20;37.10;;;;;;4973304;28;20433;-52
2022/11/15 06:15:43;;;;;;;15.30;14.60;;;12.10;37.20;;;;;;4974055;28;20543;-58
2022/11/15 06:18:08;;;;;;;14.00;13.40;;;12.10;36.60;;;;;;4974851;28;20233;-59
2022/11/15 06:20:34;;;;;;;15.47;14.47;;;12.10;36.30;;;;;;4972840;28;20183;-59
2022/11/15 06:23:01;;;;;;;14.87;14.17;;;12.10;36.50;;;;;;4968785;28;20197;-53
2022/11/15 06:25:29;;;;;;;15.60;14.87;;;12.10;36.40;;;;;;4967237;28;20277;-58
2022/11/15 06:27:56;;;;;;;15.00;14.20;;;12.20;36.60;;;;;;4971882;28;20501;-55
2022/11/15 06:30:23;;;;;;;16.30;15.70;;;12.20;36.20;;;;;;4971310;28;20441;-52
2022/11/15 06:32:49;;;;;;;15.63;14.83;;;12.20;36.20;;;;;;4974368;28;20792;-55
2022/11/15 06:35:15;;;;;;;16.60;15.80;;;12.20;36.10;;;;;;4974806;28;20425;-50
2022/11/15 06:37:41;;;;;;;15.70;14.90;;;12.20;36.00;;;;;;4974793;28;20554;-50
2022/11/15 06:40:08;;;;;;;16.10;15.20;;;12.20;36.10;;;;;;4973108;28;20206;-53
2022/11/15 06:42:34;;;;;;;16.83;15.87;;;12.20;36.10;;;;;;4974432;28;20446;-53
2022/11/15 06:45:00;;;;;;;15.00;14.20;;;12.20;36.10;;;;;;4970303;28;20958;-53
2022/11/15 06:47:25;;;;;;;15.70;15.10;;;12.20;36.70;;;;;;4944626;28;20291;-58
2022/11/15 06:49:51;;;;;;;16.57;15.67;;;12.10;36.60;;;;;;4970439;28;20190;-58
2022/11/15 06:52:18;;;;;;;16.60;15.90;;;12.10;36.20;;;;;;4972066;28;20233;-57
2022/11/15 06:54:44;;;;;;;17.50;16.40;;;12.10;36.80;;;;;;4965457;28;20245;-58
2022/11/15 06:57:10;;;;;;;16.10;15.30;;;12.10;36.50;;;;;;4958035;28;21313;-57
2022/11/15 06:59:36;;;;;;;16.50;15.70;;;12.20;36.50;;;;;;4974498;28;20678;-57
2022/11/15 07:02:02;;;;;;;14.27;13.57;;;12.10;36.40;;;;;;4972845;28;20958;-59
2022/11/15 07:04:27;;;;;;;14.90;13.70;;;12.10;36.60;;;;;;4984365;28;20425;-59
2022/11/15 07:06:53;;;;;;;13.80;12.87;;;12.10;37.30;;;;;;4993241;28;20182;-53
2022/11/15 07:09:19;;;;;;;15.30;14.50;;;12.10;37.30;;;;;;4975646;28;20196;-52
2022/11/15 07:11:44;;;;;;;13.97;13.17;;;12.10;37.30;;;;;;4973057;28;20330;-54
2022/11/15 07:14:10;;;;;;;14.40;13.27;;;12.10;37.30;;;;;;4972766;28;20588;-58
2022/11/15 07:16:36;;;;;;;13.83;13.23;;;12.10;37.20;;;;;;4953886;29;20211;-58
2022/11/15 07:19:02;;;;;;;13.23;12.63;;;12.20;37.30;;;;;;4958742;28;20193;-58
2022/11/15 07:21:28;;;;;;;13.90;13.10;;;12.20;37.10;;;;;;4972081;28;20955;-58
2022/11/15 07:23:54;;;;;;;13.00;12.30;;;12.10;36.60;;;;;;4971980;28;20179;-58
2022/11/15 07:26:20;;;;;;;14.40;13.40;;;12.10;36.50;;;;;;4972755;28;20186;-58
2022/11/15 07:28:45;;;;;;;12.73;12.10;;;12.20;36.50;;;;;;4973600;28;20972;-58
2022/11/15 07:31:11;;;;;;;13.80;13.00;;;12.10;34.10;;;;;;4970489;28;20187;-59
2022/11/15 07:33:37;;;;;;;13.30;12.70;;;11.90;34.60;;;;;;4971936;28;20645;-53
2022/11/15 07:36:04;;;;;;;14.23;13.37;;;11.90;34.20;;;;;;4973103;28;20213;-51
2022/11/15 07:38:31;;;;;;;13.73;13.10;;;11.80;34.50;;;;;;4970966;28;20186;-53
2022/11/15 07:41:03;;;;;;;14.00;13.40;;;11.80;34.90;;;;;;4970798;28;20433;-54
2022/11/15 07:43:29;;;;;;;13.77;12.93;;;12.00;35.60;;;;;;4970506;28;20454;-53
2022/11/15 07:45:55;;;;;;;13.50;12.80;;;12.00;33.70;;;;;;4972551;28;20923;-55
2022/11/15 07:48:21;;;;;;;12.90;12.30;;;12.10;34.20;;;;;;4972231;28;20426;-55
2022/11/15 07:50:47;;;;;;;13.90;13.20;;;12.30;35.00;;;;;;4972254;28;20417;-55
2022/11/15 07:53:13;;;;;;;12.50;11.70;;;12.30;33.60;;;;;;4977000;28;20288;-55
2022/11/15 07:55:40;;;;;;;12.80;12.10;;;12.40;33.60;;;;;;4973143;28;20462;-55
2022/11/15 07:58:08;;;;;;;12.57;12.07;;;12.50;34.30;;;;;;4972757;28;20182;-55
2022/11/15 08:00:35;;;;;;;12.83;12.23;;;12.60;34.00;;;;;;4971035;28;20512;-55
2022/11/15 08:03:08;;;;;;;13.77;13.07;;;12.70;34.70;;;;;;4965351;28;20904;-53
2022/11/15 08:05:35;;;;;;;14.10;13.40;;;12.70;33.90;;;;;;4970222;28;20851;-58
2022/11/15 08:08:00;;;;;;;12.90;12.30;;;12.80;34.00;;;;;;4971200;28;20480;-58
2022/11/15 08:10:27;;;;;;;13.97;13.03;;;12.90;33.70;;;;;;4971084;28;20433;-58
2022/11/15 08:13:00;;;;;;;13.30;12.30;;;13.00;34.00;;;;;;4973521;28;20210;-57
2022/11/15 08:15:27;;;;;;;12.40;11.90;;;13.00;33.70;;;;;;4971556;28;20462;-52
2022/11/15 08:17:57;;;;;;;12.80;12.10;;;13.00;30.70;;;;;;4972395;28;20419;-53
2022/11/15 08:20:24;;;;;;;13.50;12.80;;;12.90;31.90;;;;;;4973796;28;20445;-53
2022/11/15 08:22:49;;;;;;;12.80;12.10;;;12.90;32.70;;;;;;4979657;28;20496;-54
2022/11/15 08:25:15;;;;;;;13.40;12.70;;;13.00;32.80;;;;;;4991210;28;20529;-55
2022/11/15 08:27:41;;;;;;;13.97;12.90;;;13.00;32.80;;;;;;4975164;28;20183;-55
2022/11/15 08:30:07;;;;;;;11.70;11.20;;;13.00;32.20;;;;;;4969805;28;20751;-53
2022/11/15 08:32:33;;;;;;;12.30;11.70;;;13.00;31.50;;;;;;4974600;28;20185;-54
2022/11/15 08:34:58;;;;;;;13.47;12.20;;;12.90;31.00;;;;;;4989813;28;20425;-52
2022/11/15 08:37:24;;;;;;;13.13;12.50;;;12.90;32.20;;;;;;4991859;28;20573;-53
2022/11/15 08:39:49;;;;;;;12.70;12.10;;;12.90;31.20;;;;;;4990672;28;20178;-53
2022/11/15 08:42:16;;;;;;;12.90;12.13;;;12.70;31.10;;;;;;4990393;28;20178;-51
2022/11/15 08:44:42;;;;;;;13.67;12.87;;;12.60;31.50;;;;;;4991492;28;20697;-54
2022/11/15 08:47:10;;;;;;;13.73;13.13;;;12.60;31.70;;;;;;4988940;28;20496;-53
2022/11/15 08:49:36;;;;;;;13.47;12.87;;;12.70;33.40;;;;;;4977163;28;20422;-51
2022/11/15 08:52:01;;;;;;;14.40;13.50;;;12.70;32.00;;;;;;4989423;28;20502;-54
2022/11/15 08:54:27;;;;;;;12.80;12.20;;;12.70;31.30;;;;;;4991539;28;20188;-56
2022/11/15 08:56:53;;;;;;;12.77;12.17;;;12.70;30.70;;;;;;4991253;28;20561;-54
2022/11/15 08:59:18;;;;;;;12.03;11.50;;;12.80;31.20;;;;;;4971816;28;20655;-52
2022/11/15 09:01:44;;;;;;;11.60;10.97;;;12.90;31.80;;;;;;4970738;28;20644;-53
2022/11/15 09:04:10;;;;;;;11.30;10.70;;;13.00;31.80;;;;;;4970994;28;20547;-53
2022/11/15 09:06:35;;;;;;;11.87;11.27;;;13.10;31.70;;;;;;4970582;28;20274;-55
2022/11/15 09:09:02;;;;;;;11.70;11.20;;;13.20;32.30;;;;;;4970979;28;20698;-53
2022/11/15 09:11:27;;;;;;;11.30;10.77;;;13.30;31.30;;;;;;4971198;28;20211;-55
2022/11/15 09:13:53;;;;;;;12.07;11.30;;;13.30;29.70;;;;;;4971856;28;20458;-53
2022/11/15 09:16:19;;;;;;;11.17;10.67;;;13.40;30.60;;;;;;4970585;28;20305;-51
2022/11/15 09:18:44;;;;;;;11.87;11.27;;;13.50;31.60;;;;;;4970517;28;20221;-55
2022/11/15 09:21:10;;;;;;;11.80;11.20;;;13.50;32.00;;;;;;4970119;28;20204;-55
2022/11/15 09:23:36;;;;;;;11.50;10.53;;;13.60;32.30;;;;;;4971785;28;20657;-54
2022/11/15 09:26:04;;;;;;;11.50;10.90;;;13.70;32.30;;;;;;4971682;28;20428;-55
2022/11/15 09:28:30;;;;;;;13.20;12.30;;;13.80;32.10;;;;;;4973469;28;20218;-56
2022/11/15 09:31:01;;;;;;;11.77;11.00;;;13.80;32.00;;;;;;4975227;28;20793;-52
2022/11/15 09:33:27;;;;;;;11.57;11.07;;;13.80;30.90;;;;;;4973895;28;20521;-53
2022/11/15 09:35:53;;;;;;;12.50;11.63;;;13.80;30.10;;;;;;4972865;28;20900;-54
2022/11/15 09:38:19;;;;;;;13.77;12.87;;;13.90;31.20;;;;;;4974648;28;20187;-53
2022/11/15 09:40:49;;;;;;;14.50;13.33;;;13.90;31.70;;;;;;4974000;28;20517;-54
2022/11/15 09:43:58;;;;;;;13.53;12.63;;;13.90;31.00;;;;;;4973006;28;20496;-53
2022/11/15 09:46:36;;;;;;;12.80;12.10;;;13.90;31.50;;;;;;4965918;28;20840;-54
2022/11/15 09:49:02;;;;;;;13.53;12.63;;;14.00;31.40;;;;;;4972262;28;20434;-54
2022/11/15 09:51:32;;;;;;;12.47;11.87;;;14.00;30.90;;;;;;4973930;28;20425;-54
2022/11/15 09:54:02;;;;;;;14.17;13.20;;;14.00;31.00;;;;;;4985271;28;20768;-54
2022/11/15 09:56:34;;;;;;;14.23;12.63;;;14.00;30.30;;;;;;4982527;28;20524;-55
2022/11/15 09:59:19;;;;;;;13.13;12.00;;;14.00;30.00;;;;;;4974249;28;20930;-58
2022/11/15 10:02:12;;;;;;;14.43;13.43;;;14.10;31.00;;;;;;4973687;28;20509;-54
2022/11/15 10:04:40;;;;;;;11.83;11.10;;;14.10;30.50;;;;;;4974193;28;20480;-56
2022/11/15 10:07:43;;;;;;;11.00;10.37;;;14.20;30.00;;;;;;4974194;28;20421;-55
2022/11/15 10:10:29;;;;;;;10.90;10.30;;;14.20;28.80;;;;;;4973140;28;20496;-57
2022/11/15 10:12:55;;;;;;;10.70;10.20;;;14.30;29.00;;;;;;4968851;28;20438;-57
2022/11/15 10:15:22;;;;;;;10.50;10.00;;;14.30;29.40;;;;;;4957248;28;20437;-57
2022/11/15 10:18:03;;;;;;;11.77;10.73;;;14.30;29.70;;;;;;4972547;28;20179;-58
2022/11/15 10:20:35;;;;;;;11.43;10.77;;;14.40;30.50;;;;;;4971333;28;20457;-57
2022/11/15 10:23:05;;;;;;;11.57;10.97;;;14.40;29.70;;;;;;4974335;28;20469;-57
2022/11/15 10:25:33;;;;;;;10.80;10.20;;;14.40;30.40;;;;;;4973914;28;20414;-61
2022/11/15 10:28:00;;;;;;;11.00;10.37;;;14.40;29.90;;;;;;4972926;28;20426;-58
2022/11/15 10:30:34;;;;;;;11.30;10.70;;;14.40;28.80;;;;;;4973914;28;20513;-57
2022/11/15 10:33:16;;;;;;;10.40;9.93;;;14.40;29.00;;;;;;4973642;28;20930;-56
2022/11/15 10:35:42;;;;;;;10.50;10.10;;;14.40;30.00;;;;;;4975766;28;21088;-56
2022/11/15 10:38:10;;;;;;;11.30;10.53;;;14.40;28.80;;;;;;4973710;28;20426;-58
2022/11/15 10:40:37;;;;;;;11.90;11.40;;;14.40;29.00;;;;;;4973861;28;20422;-58
2022/11/15 10:43:14;;;;;;;10.73;10.33;;;14.40;29.70;;;;;;4974176;28;21001;-58
2022/11/15 10:45:40;;;;;;;12.17;11.57;;;14.40;31.50;;;;;;4974372;28;20426;-58
2022/11/15 10:48:13;;;;;;;11.87;11.37;;;14.40;30.70;;;;;;4974412;28;20493;-58
2022/11/15 10:50:44;;;;;;;12.37;11.53;;;14.40;31.10;;;;;;4979218;28;20929;-56
2022/11/15 10:53:32;;;;;;;12.13;11.23;;;14.40;32.20;;;;;;4992877;28;20850;-56
2022/11/15 10:56:11;;;;;;;10.67;10.23;;;14.40;29.80;;;;;;4993400;28;20563;-57
2022/11/15 10:58:50;;;;;;;11.17;10.77;;;14.40;29.60;;;;;;4993163;28;20512;-57
2022/11/15 11:01:18;;;;;;;10.63;10.23;;;14.50;30.00;;;;;;4992213;28;20479;-57
2022/11/15 11:03:58;;;;;;;10.87;10.47;;;14.50;29.90;;;;;;4993658;28;20453;-57
2022/11/15 11:06:25;;;;;;;10.97;10.57;;;14.50;29.30;;;;;;4991051;28;20909;-58
2022/11/15 11:09:03;;;;;;;11.57;10.97;;;14.50;29.50;;;;;;4990806;28;20926;-58
2022/11/15 11:11:51;;;;;;;11.70;11.20;;;14.50;29.50;;;;;;4975952;28;20515;-55
2022/11/15 11:14:34;;;;;;;11.57;11.17;;;14.50;30.40;;;;;;4992529;28;20425;-54
2022/11/15 11:17:18;;;;;;;12.13;11.60;;;14.50;30.80;;;;;;4992145;28;20464;-55
2022/11/15 11:20:00;;;;;;;11.63;11.23;;;14.50;30.60;;;;;;4993143;28;20424;-54
2022/11/15 11:22:44;;;;;;;11.23;10.77;;;14.60;31.00;;;;;;4990487;28;20417;-55
2022/11/15 11:25:31;;;;;;;12.20;11.70;;;14.60;30.10;;;;;;4993048;28;20405;-53
2022/11/15 11:28:32;;;;;;;11.30;10.80;;;14.60;31.30;;;;;;4990615;28;20424;-55
2022/11/15 11:31:20;;;;;;;10.73;10.43;;;14.60;29.90;;;;;;4889061;28;20421;-55
2022/11/15 11:33:52;;;;;;;11.10;10.40;;;14.60;30.30;;;;;;4973426;28;20567;-55
2022/11/15 11:36:20;;;;;;;12.20;11.60;;;14.60;31.30;;;;;;4981608;28;20465;-55
2022/11/15 11:39:08;;;;;;;11.70;11.13;;;14.70;31.40;;;;;;4989146;28;20421;-56
2022/11/15 11:41:47;;;;;;;10.97;10.57;;;14.70;31.40;;;;;;4990357;28;20421;-55
2022/11/15 11:44:32;;;;;;;17.87;16.33;;;14.70;31.50;;;;;;4991777;28;21007;-53
2022/11/15 11:47:10;;;;;;;11.53;11.03;;;14.80;31.30;;;;;;4991005;28;20463;-55
2022/11/15 11:49:45;;;;;;;12.43;11.93;;;14.70;30.80;;;;;;4991690;28;20431;-56
2022/11/15 11:52:30;;;;;;;10.80;10.40;;;14.70;30.20;;;;;;4989848;28;20424;-55
2022/11/15 11:54:58;;;;;;;11.57;11.07;;;14.70;30.00;;;;;;4989293;28;20417;-53
2022/11/15 11:57:44;;;;;;;11.83;11.10;;;14.70;29.90;;;;;;4991441;28;20456;-56
2022/11/15 12:00:25;;;;;;;12.00;11.60;;;14.80;30.80;;;;;;4990140;28;20429;-55
2022/11/15 12:03:12;;;;;;;11.23;10.77;;;14.90;30.00;;;;;;4990172;28;20940;-55
2022/11/15 12:05:46;;;;;;;11.60;11.10;;;14.80;29.90;;;;;;4989194;28;20417;-57
2022/11/15 12:08:38;;;;;;;12.50;11.77;;;14.90;29.90;;;;;;4982337;28;20488;-55
2022/11/15 12:11:26;;;;;;;11.73;11.03;;;14.90;31.00;;;;;;4970778;28;20926;-55
2022/11/15 12:13:58;;;;;;;11.30;10.80;;;15.00;31.90;;;;;;4970370;28;20918;-56
2022/11/15 12:16:28;;;;;;;13.30;12.70;;;15.10;31.40;;;;;;4971856;28;20818;-56
2022/11/15 12:19:00;;;;;;;13.40;12.70;;;15.10;31.60;;;;;;4971492;28;20995;-56
2022/11/15 12:21:52;;;;;;;13.93;13.13;;;15.20;30.90;;;;;;4973814;28;20421;-55
2022/11/15 12:24:42;;;;;;;14.27;13.17;;;15.20;30.80;;;;;;4974986;28;20410;-56
2022/11/15 12:27:13;;;;;;;13.90;13.00;;;15.10;30.10;;;;;;4971218;28;20930;-55
2022/11/15 12:29:51;;;;;;;13.53;12.83;;;15.10;30.80;;;;;;4972105;28;20426;-56
2022/11/15 12:32:25;;;;;;;11.60;11.00;;;15.10;30.20;;;;;;4973336;28;20425;-55
2022/11/15 12:34:52;;;;;;;12.07;11.17;;;15.10;30.50;;;;;;4969523;28;20424;-54
2022/11/15 12:37:33;;;;;;;12.37;11.37;;;15.20;29.90;;;;;;4971832;28;20475;-57
2022/11/15 12:40:20;;;;;;;12.80;12.00;;;15.20;31.40;;;;;;4970951;28;20477;-55
2022/11/15 12:43:01;;;;;;;11.37;10.80;;;15.20;32.20;;;;;;4959052;28;20446;-54
2022/11/15 12:45:53;;;;;;;12.63;11.93;;;15.20;32.20;;;;;;4959274;28;20449;-56
2022/11/15 12:48:19;;;;;;;9.97;9.40;;;15.20;31.20;;;;;;4954432;28;20453;-55
2022/11/15 12:50:54;;;;;;;11.10;10.57;;;15.10;30.50;;;;;;4954353;28;20794;-55
2022/11/15 12:53:32;;;;;;;11.70;10.97;;;15.10;31.70;;;;;;4957094;28;20222;-55
2022/11/15 12:56:09;;;;;;;10.60;10.03;;;15.10;30.80;;;;;;4959004;28;20508;-55